^^
Station Historical Data
Daily Summary for March 16, 2017 Units:  English    Metric   Both
« Previous Day
Next Day »
Daily Weekly Monthly Yearly Custom
  High: Low: Average:
Temperature: 33.0 °F 19.7 °F 26.7 °F
Dew Point: 31.5 °F 18.0 °F 25.2 °F
Humidity: 96 % 93 % 94 %
Wind Speed: 19.3 mph 0.0 mph 7.6 mph
Wind Gust: 25.0 mph - -
Wind:- - West
Pressure: 30.20 in 29.99 in -
Precipitation: 0.27 in    
Historical Graphs
 
 
Tabular Data for March 16, 2017
Time Temperature Dew Point Pressure Wind Wind Speed Wind Gust Humidity Rainfall Rate (Hourly) solar Conditions
00:04 23.1 °F 21.6 °F 29.99 in NW 9.7 mph 16.1 mph 94 % 0.00 in 0.0 W/m2 CLR
00:09 23.1 °F 21.6 °F 29.99 in West 10.3 mph 15.0 mph 94 % 0.00 in 0.0 W/m2 CLR
00:14 23.0 °F 21.5 °F 29.99 in WSW 7.4 mph 11.5 mph 94 % 0.00 in 0.0 W/m2 CLR
00:19 22.9 °F 21.4 °F 29.99 in WNW 12.2 mph 18.4 mph 94 % 0.00 in 0.0 W/m2 CLR
00:24 22.9 °F 21.4 °F 29.99 in West 8.0 mph 12.7 mph 94 % 0.00 in 0.0 W/m2 CLR
00:29 22.8 °F 21.3 °F 29.99 in West 6.0 mph 11.5 mph 94 % 0.00 in 0.0 W/m2 CLR
00:34 22.8 °F 21.3 °F 29.99 in WNW 4.2 mph 11.5 mph 94 % 0.00 in 0.0 W/m2 CLR
00:39 22.8 °F 21.3 °F 29.99 in WNW 10.0 mph 17.0 mph 94 % 0.00 in 0.0 W/m2 CLR
00:44 22.7 °F 21.2 °F 29.99 in WNW 5.1 mph 10.4 mph 94 % 0.00 in 0.0 W/m2 CLR
00:49 22.7 °F 21.2 °F 29.99 in West 7.8 mph 11.5 mph 94 % 0.00 in 0.0 W/m2 CLR
00:54 22.7 °F 21.2 °F 29.99 in WNW 6.6 mph 9.2 mph 94 % 0.00 in 0.0 W/m2 CLR
00:59 22.6 °F 21.1 °F 29.99 in West 6.9 mph 16.1 mph 94 % 0.00 in 0.0 W/m2 CLR
01:04 22.6 °F 21.1 °F 29.99 in WNW 12.9 mph 17.3 mph 94 % 0.00 in 0.0 W/m2 CLR
01:09 22.6 °F 21.1 °F 29.99 in West 9.9 mph 15.0 mph 94 % 0.00 in 0.0 W/m2 CLR
01:14 22.6 °F 21.1 °F 30.00 in West 10.7 mph 14.0 mph 94 % 0.00 in 0.0 W/m2 CLR
01:19 22.6 °F 21.1 °F 30.00 in WNW 9.8 mph 16.1 mph 94 % 0.00 in 0.0 W/m2 CLR
01:25 22.6 °F 21.1 °F 30.00 in West 8.4 mph 11.5 mph 94 % 0.00 in 0.0 W/m2 CLR
01:30 22.6 °F 21.1 °F 30.00 in WSW 10.7 mph 11.5 mph 94 % 0.00 in 0.0 W/m2 CLR
01:35 22.6 °F 21.1 °F 30.00 in West 8.2 mph 11.5 mph 94 % 0.00 in 0.0 W/m2 CLR
01:40 22.5 °F 21.0 °F 30.00 in WNW 10.1 mph 18.4 mph 94 % 0.00 in 0.0 W/m2 CLR
01:45 22.5 °F 21.0 °F 30.00 in SW 7.6 mph 15.0 mph 94 % 0.00 in 0.0 W/m2 CLR
01:50 22.4 °F 20.9 °F 30.00 in West 10.0 mph 18.0 mph 94 % 0.00 in 0.0 W/m2 CLR
01:55 22.4 °F 20.9 °F 30.00 in West 5.0 mph 11.5 mph 94 % 0.00 in 0.0 W/m2 CLR
02:00 22.3 °F 20.8 °F 30.00 in West 13.0 mph 16.0 mph 94 % 0.00 in 0.0 W/m2 CLR
02:05 22.3 °F 20.8 °F 30.00 in WNW 8.0 mph 18.0 mph 94 % 0.00 in 0.0 W/m2 CLR
02:10 22.3 °F 20.8 °F 30.00 in WNW 7.0 mph 16.0 mph 94 % 0.00 in 0.0 W/m2 CLR
02:15 22.3 °F 20.8 °F 30.00 in West 10.7 mph 18.4 mph 94 % 0.00 in 0.0 W/m2 CLR
02:20 22.2 °F 20.7 °F 30.00 in West 3.5 mph 9.2 mph 94 % 0.00 in 0.0 W/m2 CLR
02:25 22.2 °F 20.7 °F 30.01 in WSW 4.3 mph 9.2 mph 94 % 0.00 in 0.0 W/m2 CLR
02:30 22.1 °F 20.6 °F 30.01 in WSW 4.8 mph 9.2 mph 94 % 0.00 in 0.0 W/m2 CLR
02:35 22.0 °F 20.5 °F 30.01 in WSW 4.7 mph 11.5 mph 94 % 0.00 in 0.0 W/m2 CLR
02:40 21.9 °F 20.4 °F 30.01 in West 3.4 mph 10.4 mph 94 % 0.00 in 0.0 W/m2 CLR
02:45 21.8 °F 20.3 °F 30.01 in West 6.6 mph 12.7 mph 94 % 0.00 in 0.0 W/m2 CLR
02:50 21.8 °F 20.3 °F 30.01 in WSW 5.2 mph 11.5 mph 94 % 0.00 in 0.0 W/m2 CLR
02:55 21.8 °F 20.3 °F 30.01 in SW 8.7 mph 12.7 mph 94 % 0.00 in 0.0 W/m2 CLR
03:00 21.7 °F 20.2 °F 30.01 in West 5.9 mph 10.4 mph 94 % 0.00 in 0.0 W/m2 CLR
03:05 21.7 °F 20.2 °F 30.01 in WSW 12.2 mph 17.3 mph 94 % 0.00 in 0.0 W/m2 CLR
03:10 21.7 °F 20.2 °F 30.01 in West 4.3 mph 13.8 mph 94 % 0.00 in 0.0 W/m2 CLR
03:15 21.7 °F 20.2 °F 30.00 in WSW 3.9 mph 10.0 mph 94 % 0.00 in 0.0 W/m2 CLR
03:20 21.6 °F 20.1 °F 30.00 in WNW 5.6 mph 10.4 mph 94 % 0.00 in 0.0 W/m2 CLR
03:25 21.5 °F 20.0 °F 30.00 in WSW 5.1 mph 12.7 mph 94 % 0.00 in 0.0 W/m2 CLR
03:30 21.5 °F 20.0 °F 30.00 in WSW 7.1 mph 12.7 mph 94 % 0.00 in 0.0 W/m2 CLR
03:35 21.4 °F 19.9 °F 30.00 in WSW 6.4 mph 10.4 mph 94 % 0.00 in 0.0 W/m2 CLR
03:40 21.3 °F 19.8 °F 30.00 in West 6.5 mph 11.5 mph 94 % 0.00 in 0.0 W/m2 CLR
03:45 21.2 °F 19.7 °F 30.00 in SW 3.5 mph 8.0 mph 94 % 0.00 in 0.0 W/m2 CLR
03:50 21.1 °F 19.6 °F 30.00 in WSW 7.5 mph 11.5 mph 94 % 0.00 in 0.0 W/m2 CLR
03:55 21.0 °F 19.5 °F 30.00 in WSW 3.4 mph 8.1 mph 94 % 0.00 in 0.0 W/m2 CLR
04:00 21.0 °F 19.5 °F 30.00 in West 5.2 mph 8.1 mph 94 % 0.00 in 0.0 W/m2 CLR
04:05 21.0 °F 19.5 °F 30.00 in West 5.1 mph 8.1 mph 94 % 0.00 in 0.0 W/m2 CLR
04:10 20.9 °F 19.2 °F 30.00 in West 2.1 mph 8.1 mph 93 % 0.00 in 0.0 W/m2 CLR
04:15 20.9 °F 19.2 °F 30.00 in West 2.2 mph 6.9 mph 93 % 0.00 in 0.0 W/m2 CLR
04:20 20.8 °F 19.3 °F 30.00 in WSW 4.6 mph 10.4 mph 94 % 0.00 in 0.0 W/m2 CLR
04:21 20.8 °F 19.1 °F 30.00 in WSW 4.7 mph 8.1 mph 93 % 0.00 in 0.0 W/m2 CLR
04:26 20.7 °F 19.0 °F 30.00 in West 4.7 mph 10.4 mph 93 % 0.00 in 0.0 W/m2 CLR
04:31 20.6 °F 19.1 °F 30.01 in WSW 5.7 mph 8.1 mph 94 % 0.00 in 0.0 W/m2 CLR
04:36 20.5 °F 19.0 °F 30.01 in WSW 2.7 mph 5.8 mph 94 % 0.00 in 0.0 W/m2 CLR
04:41 20.5 °F 19.0 °F 30.01 in WSW 5.0 mph 11.5 mph 94 % 0.00 in 0.0 W/m2 CLR
04:46 20.4 °F 18.7 °F 30.01 in West 6.1 mph 11.0 mph 93 % 0.00 in 0.0 W/m2 CLR
04:51 20.3 °F 18.6 °F 30.01 in SW 4.6 mph 6.9 mph 93 % 0.00 in 0.0 W/m2 CLR
04:56 20.2 °F 18.5 °F 30.01 in WSW 3.8 mph 5.8 mph 93 % 0.00 in 0.0 W/m2 CLR
05:01 20.2 °F 18.5 °F 30.01 in West 2.8 mph 6.9 mph 93 % 0.00 in 0.0 W/m2 CLR
05:06 20.1 °F 18.4 °F 30.01 in West 5.0 mph 6.9 mph 93 % 0.00 in 0.0 W/m2 CLR
05:11 20.0 °F 18.3 °F 30.01 in West 2.5 mph 8.1 mph 93 % 0.00 in 0.0 W/m2 CLR
05:16 20.0 °F 18.3 °F 30.01 in West 1.3 mph 3.0 mph 93 % 0.00 in 0.0 W/m2 CLR
05:22 19.9 °F 18.2 °F 30.01 in SW 2.5 mph 6.0 mph 93 % 0.00 in 0.0 W/m2 CLR
05:27 19.8 °F 18.1 °F 30.01 in WSW 3.2 mph 10.4 mph 93 % 0.00 in 0.0 W/m2 CLR
05:32 19.7 °F 18.0 °F 30.02 in West 3.5 mph 5.8 mph 93 % 0.00 in 0.0 W/m2 CLR
05:37 19.7 °F 18.0 °F 30.02 in West 3.3 mph 8.1 mph 93 % 0.00 in 0.0 W/m2 CLR
05:42 19.7 °F 18.0 °F 30.02 in West 6.1 mph 6.9 mph 93 % 0.00 in 0.0 W/m2 CLR
05:47 19.7 °F 18.0 °F 30.02 in West 1.4 mph 3.5 mph 93 % 0.00 in 0.0 W/m2 CLR
05:52 19.7 °F 18.0 °F 30.02 in West 2.5 mph 6.9 mph 93 % 0.00 in 0.0 W/m2 CLR
05:57 19.8 °F 18.1 °F 30.02 in SW 2.2 mph 9.2 mph 93 % 0.00 in 0.0 W/m2 CLR
06:02 19.8 °F 18.1 °F 30.02 in WSW 1.3 mph 3.5 mph 93 % 0.00 in 0.0 W/m2 CLR
06:07 19.8 °F 18.1 °F 30.02 in West 1.3 mph 3.5 mph 93 % 0.00 in 0.0 W/m2 CLR
06:12 19.8 °F 18.1 °F 30.02 in SW 1.7 mph 5.8 mph 93 % 0.00 in 0.0 W/m2 CLR
06:17 19.8 °F 18.1 °F 30.03 in WSW 2.5 mph 6.9 mph 93 % 0.00 in 0.0 W/m2 CLR
06:22 19.9 °F 18.2 °F 30.02 in WSW 0.7 mph 4.0 mph 93 % 0.00 in 0.0 W/m2 CLR
06:27 19.8 °F 18.1 °F 30.03 in WSW 2.2 mph 5.8 mph 93 % 0.00 in 0.0 W/m2 CLR
06:32 19.8 °F 18.1 °F 30.03 in West 0.1 mph 3.5 mph 93 % 0.00 in 0.0 W/m2 CLR
06:37 19.8 °F 18.1 °F 30.03 in WSW 3.1 mph 6.9 mph 93 % 0.00 in 0.0 W/m2 CLR
06:42 19.8 °F 18.1 °F 30.03 in SW 2.4 mph 6.9 mph 93 % 0.00 in 0.0 W/m2 CLR
06:47 19.8 °F 18.1 °F 30.03 in WSW 2.4 mph 6.9 mph 93 % 0.00 in 0.0 W/m2 CLR
06:52 19.8 °F 18.1 °F 30.03 in WSW 0.5 mph 3.5 mph 93 % 0.00 in 0.0 W/m2 CLR
06:57 19.8 °F 18.1 °F 30.04 in WSW 1.8 mph 3.5 mph 93 % 0.00 in 0.0 W/m2 CLR
07:02 19.8 °F 18.1 °F 30.04 in Calm     93 % 0.00 in 0.0 W/m2 CLR
07:05 19.8 °F 18.1 °F 30.04 in West 0.4 mph 3.5 mph 93 % 0.00 in 0.0 W/m2 CLR
07:10 19.8 °F 18.1 °F 30.04 in West 0.4 mph 3.5 mph 93 % 0.00 in 0.0 W/m2 CLR
07:15 19.8 °F 18.1 °F 30.04 in West 2.8 mph 4.0 mph 93 % 0.00 in 7.0 W/m2 CLR
07:20 19.8 °F 18.1 °F 30.04 in West 3.4 mph 6.0 mph 93 % 0.00 in 11.0 W/m2 CLR
07:25 19.8 °F 18.1 °F 30.04 in SW 0.8 mph 4.6 mph 93 % 0.00 in 18.0 W/m2 CLR
07:30 19.8 °F 18.1 °F 30.04 in WSW 1.1 mph 3.5 mph 93 % 0.00 in 26.0 W/m2 CLR
07:35 19.8 °F 18.1 °F 30.05 in WSW 1.0 mph 7.0 mph 93 % 0.00 in 32.0 W/m2 CLR
07:40 19.8 °F 18.1 °F 30.05 in WSW 0.8 mph 3.5 mph 93 % 0.00 in 39.0 W/m2 CLR
07:45 19.9 °F 18.2 °F 30.05 in WSW 1.3 mph 3.5 mph 93 % 0.00 in 42.0 W/m2 CLR
07:50 20.0 °F 18.3 °F 30.05 in SW 2.4 mph 5.8 mph 93 % 0.00 in 49.0 W/m2 CLR
07:55 20.1 °F 18.4 °F 30.05 in WSW 4.3 mph 8.1 mph 93 % 0.00 in 54.0 W/m2 CLR
08:00 20.3 °F 18.6 °F 30.05 in WSW 1.7 mph 8.1 mph 93 % 0.00 in 70.0 W/m2 CLR
08:05 20.4 °F 18.7 °F 30.06 in SW 4.5 mph 11.5 mph 93 % 0.00 in 100.0 W/m2 CLR
08:10 20.6 °F 18.9 °F 30.06 in West 4.5 mph 10.4 mph 93 % 0.00 in 86.0 W/m2 CLR
08:15 20.9 °F 19.2 °F 30.06 in West 5.7 mph 10.4 mph 93 % 0.00 in 95.0 W/m2 CLR
08:20 21.1 °F 19.4 °F 30.06 in WSW 9.0 mph 12.7 mph 93 % 0.00 in 148.0 W/m2 CLR
08:25 21.3 °F 19.6 °F 30.06 in WSW 7.3 mph 11.5 mph 93 % 0.00 in 135.0 W/m2 CLR
08:30 21.5 °F 19.8 °F 30.06 in West 5.4 mph 11.5 mph 93 % 0.00 in 146.0 W/m2 CLR
08:35 21.7 °F 20.0 °F 30.06 in SW 7.6 mph 16.1 mph 93 % 0.00 in 158.0 W/m2 CLR
08:40 21.9 °F 20.2 °F 30.06 in WSW 6.9 mph 11.5 mph 93 % 0.00 in 169.0 W/m2 CLR
08:45 22.1 °F 20.4 °F 30.06 in West 7.7 mph 11.5 mph 93 % 0.00 in 172.0 W/m2 CLR
08:50 22.3 °F 20.6 °F 30.06 in WSW 7.1 mph 11.5 mph 93 % 0.00 in 158.0 W/m2 FEW
08:55 22.5 °F 20.8 °F 30.06 in West 6.8 mph 11.5 mph 93 % 0.00 in 155.0 W/m2 FEW
09:00 22.5 °F 20.8 °F 30.06 in West 7.3 mph 11.5 mph 93 % 0.00 in 144.0 W/m2 SCT
09:05 22.6 °F 20.9 °F 30.06 in WSW 8.2 mph 12.7 mph 93 % 0.00 in 185.0 W/m2 FEW
09:10 22.7 °F 21.0 °F 30.06 in West 6.3 mph 11.5 mph 93 % 0.00 in 225.0 W/m2 CLR
09:15 22.9 °F 21.2 °F 30.06 in WNW 8.9 mph 13.8 mph 93 % 0.00 in 292.0 W/m2 CLR
09:20 23.1 °F 21.4 °F 30.06 in WNW 11.9 mph 17.3 mph 93 % 0.00 in 253.0 W/m2 CLR
09:25 23.2 °F 21.5 °F 30.06 in West 6.5 mph 11.5 mph 93 % 0.00 in 376.0 W/m2 CLR
09:30 23.4 °F 21.7 °F 30.06 in West 9.4 mph 15.0 mph 93 % 0.00 in 380.0 W/m2 CLR
09:35 23.6 °F 21.9 °F 30.06 in WSW 8.6 mph 11.5 mph 93 % 0.00 in 462.0 W/m2 CLR
09:40 23.8 °F 22.3 °F 30.06 in West 10.5 mph 16.1 mph 94 % 0.00 in 446.0 W/m2 CLR
09:45 24.0 °F 22.3 °F 30.06 in WNW 6.9 mph 10.4 mph 93 % 0.00 in 343.0 W/m2 CLR
09:50 24.2 °F 22.5 °F 30.06 in WNW 9.7 mph 16.1 mph 93 % 0.00 in 443.0 W/m2 CLR
09:55 24.3 °F 22.8 °F 30.06 in West 6.6 mph 9.2 mph 94 % 0.00 in 462.0 W/m2 CLR
10:00 24.6 °F 23.1 °F 30.06 in NW 10.9 mph 19.0 mph 94 % 0.00 in 462.0 W/m2 CLR
10:05 24.8 °F 23.3 °F 30.06 in West 4.4 mph 11.5 mph 94 % 0.00 in 577.0 W/m2 CLR
10:10 25.0 °F 23.5 °F 30.06 in WNW 11.2 mph 17.3 mph 94 % 0.00 in 661.0 W/m2 CLR
10:15 25.3 °F 23.8 °F 30.06 in West 14.0 mph 19.0 mph 94 % 0.00 in 671.0 W/m2 CLR
10:20 25.4 °F 23.7 °F 30.06 in WSW 12.1 mph 17.3 mph 93 % 0.00 in 703.0 W/m2 CLR
10:21 25.5 °F 23.8 °F 30.06 in WNW 10.4 mph 16.1 mph 93 % 0.00 in 703.0 W/m2 CLR
10:26 25.7 °F 24.2 °F 30.06 in West 10.2 mph 12.7 mph 94 % 0.00 in 768.0 W/m2 CLR
10:31 25.9 °F 24.4 °F 30.06 in WNW 11.6 mph 16.1 mph 94 % 0.00 in 211.0 W/m2 BKN
10:36 26.1 °F 24.6 °F 30.06 in West 7.6 mph 17.3 mph 94 % 0.00 in 501.0 W/m2 CLR
10:41 26.3 °F 24.8 °F 30.06 in WNW 7.3 mph 10.4 mph 94 % 0.00 in 598.0 W/m2 CLR
10:42 26.4 °F 24.9 °F 30.06 in West 9.9 mph 14.0 mph 94 % 0.00 in 598.0 W/m2 CLR
10:47 26.7 °F 25.2 °F 30.06 in WNW 9.2 mph 13.8 mph 94 % 0.00 in 737.0 W/m2 CLR
10:52 26.9 °F 25.4 °F 30.06 in West 9.4 mph 17.3 mph 94 % 0.00 in 707.0 W/m2 CLR
10:57 27.1 °F 25.6 °F 30.06 in WNW 12.6 mph 16.0 mph 94 % 0.00 in 807.0 W/m2 CLR
11:02 27.2 °F 25.7 °F 30.06 in NW 13.3 mph 18.4 mph 94 % 0.00 in 759.0 W/m2 CLR
11:07 27.4 °F 25.9 °F 30.06 in NW 10.1 mph 16.1 mph 94 % 0.00 in 791.0 W/m2 CLR
11:12 27.6 °F 26.1 °F 30.06 in WNW 13.1 mph 17.3 mph 94 % 0.00 in 712.0 W/m2 CLR
11:17 27.7 °F 26.2 °F 30.06 in West 6.5 mph 9.2 mph 94 % 0.00 in 439.0 W/m2 FEW
11:23 27.8 °F 26.3 °F 30.06 in WNW 16.1 mph 21.9 mph 94 % 0.00 in 819.0 W/m2 CLR
11:28 27.7 °F 26.2 °F 30.06 in West 13.0 mph 19.6 mph 94 % 0.01 in 805.0 W/m2 RA
11:33 27.8 °F 26.3 °F 30.06 in WNW 16.7 mph 23.0 mph 94 % 0.01 in 837.0 W/m2 RA
11:38 27.9 °F 26.4 °F 30.06 in West 13.5 mph 24.2 mph 94 % 0.01 in 837.0 W/m2 CLR
11:43 28.1 °F 26.6 °F 30.06 in West 7.4 mph 12.7 mph 94 % 0.01 in 499.0 W/m2 CLR
11:48 28.5 °F 27.0 °F 30.06 in WNW 11.8 mph 21.9 mph 94 % 0.01 in 842.0 W/m2 CLR
11:53 28.8 °F 27.3 °F 30.06 in NW 7.5 mph 12.7 mph 94 % 0.01 in 926.0 W/m2 CLR
11:58 29.1 °F 27.6 °F 30.06 in WNW 7.2 mph 12.7 mph 94 % 0.01 in 940.0 W/m2 CLR
12:03 29.2 °F 27.7 °F 30.06 in West 9.4 mph 12.7 mph 94 % 0.01 in 874.0 W/m2 CLR
12:08 29.2 °F 27.7 °F 30.06 in WNW 13.3 mph 19.6 mph 94 % 0.01 in 884.0 W/m2 CLR
12:13 29.2 °F 27.7 °F 30.06 in WNW 12.3 mph 17.3 mph 94 % 0.01 in 923.0 W/m2 CLR
12:18 29.1 °F 27.6 °F 30.06 in West 11.9 mph 19.6 mph 94 % 0.01 in 1002.0 W/m2 CLR
12:23 29.1 °F 27.6 °F 30.06 in WNW 12.4 mph 21.9 mph 94 % 0.01 in 995.0 W/m2 FEW
12:28 29.2 °F 27.7 °F 30.06 in West 10.8 mph 13.8 mph 94 % 0.01 in 993.0 W/m2 RA
12:33 29.3 °F 27.8 °F 30.06 in WNW 17.1 mph 21.9 mph 94 % 0.02 in 963.0 W/m2 RA
12:38 29.4 °F 27.9 °F 30.06 in WNW 11.4 mph 16.1 mph 94 % 0.02 in 197.0 W/m2 RA
12:43 29.6 °F 28.1 °F 30.06 in West 9.2 mph 20.7 mph 94 % 0.03 in 986.0 W/m2 RA
12:48 29.6 °F 28.1 °F 30.06 in NW 13.0 mph 18.0 mph 94 % 0.04 in 870.0 W/m2 RA
12:53 29.6 °F 28.1 °F 30.06 in NW 9.6 mph 16.1 mph 94 % 0.04 in 893.0 W/m2 RA
12:58 29.6 °F 28.1 °F 30.05 in WNW 12.6 mph 21.0 mph 94 % 0.05 in 888.0 W/m2 RA
13:03 29.9 °F 28.4 °F 30.05 in West 5.7 mph 13.0 mph 94 % 0.06 in 949.0 W/m2 RA
13:08 30.1 °F 28.6 °F 30.06 in West 13.1 mph 18.4 mph 94 % 0.06 in 912.0 W/m2 RA
13:13 30.3 °F 28.8 °F 30.05 in West 9.2 mph 15.0 mph 94 % 0.07 in 1013.0 W/m2 RA
13:18 30.3 °F 28.8 °F 30.05 in NW 12.7 mph 17.3 mph 94 % 0.07 in 879.0 W/m2 RA
13:23 30.5 °F 29.0 °F 30.05 in West 12.2 mph 20.7 mph 94 % 0.07 in 891.0 W/m2 RA
13:28 30.6 °F 29.1 °F 30.05 in West 12.8 mph 19.6 mph 94 % 0.07 in 932.0 W/m2 RA
13:33 30.7 °F 29.2 °F 30.05 in West 8.7 mph 15.0 mph 94 % 0.07 in 935.0 W/m2 RA
13:38 30.8 °F 29.3 °F 30.05 in WNW 10.8 mph 16.1 mph 94 % 0.07 in 889.0 W/m2 RA
13:43 30.8 °F 29.3 °F 30.05 in West 12.0 mph 16.1 mph 94 % 0.07 in 779.0 W/m2 RA
13:48 30.9 °F 29.4 °F 30.05 in WNW 16.8 mph 21.9 mph 94 % 0.06 in 905.0 W/m2 RA
13:53 30.9 °F 29.4 °F 30.05 in West 11.0 mph 17.3 mph 94 % 0.07 in 937.0 W/m2 RA
13:58 31.0 °F 29.5 °F 30.05 in WNW 9.4 mph 19.6 mph 94 % 0.06 in 877.0 W/m2 RA
14:03 31.2 °F 29.7 °F 30.05 in West 9.4 mph 14.0 mph 94 % 0.06 in 896.0 W/m2 RA
14:08 31.2 °F 29.7 °F 30.04 in West 11.2 mph 17.3 mph 94 % 0.06 in 870.0 W/m2 RA
14:13 31.3 °F 29.8 °F 30.04 in West 11.6 mph 18.0 mph 94 % 0.06 in 872.0 W/m2 RA
14:18 31.3 °F 29.8 °F 30.04 in WNW 9.7 mph 15.0 mph 94 % 0.06 in 840.0 W/m2 RA
14:23 31.5 °F 30.0 °F 30.04 in West 10.6 mph 13.8 mph 94 % 0.06 in 860.0 W/m2 RA
14:28 31.5 °F 30.0 °F 30.04 in West 14.0 mph 17.3 mph 94 % 0.06 in 875.0 W/m2 RA
14:34 31.6 °F 30.1 °F 30.04 in WNW 10.9 mph 19.6 mph 94 % 0.06 in 817.0 W/m2 RA
14:39 31.7 °F 30.2 °F 30.04 in West 14.3 mph 23.0 mph 94 % 0.06 in 824.0 W/m2 RA
14:44 31.6 °F 30.1 °F 30.03 in WNW 12.2 mph 17.3 mph 94 % 0.06 in 824.0 W/m2 RA
14:49 31.7 °F 30.2 °F 30.04 in WNW 11.7 mph 25.0 mph 94 % 0.06 in 768.0 W/m2 RA
14:54 31.7 °F 30.2 °F 30.04 in West 12.1 mph 20.7 mph 94 % 0.05 in 779.0 W/m2 CLR
14:59 31.7 °F 30.2 °F 30.03 in WSW 12.9 mph 17.3 mph 94 % 0.05 in 761.0 W/m2 CLR
15:04 31.8 °F 30.3 °F 30.04 in West 13.1 mph 19.6 mph 94 % 0.05 in 747.0 W/m2 RA
15:09 31.9 °F 30.4 °F 30.04 in WNW 19.3 mph 21.9 mph 94 % 0.05 in 737.0 W/m2 RA
15:14 32.0 °F 30.5 °F 30.03 in WNW 11.7 mph 18.4 mph 94 % 0.04 in 735.0 W/m2 CLR
15:19 32.2 °F 30.7 °F 30.04 in WNW 11.5 mph 18.4 mph 94 % 0.04 in 717.0 W/m2 CLR
15:24 32.4 °F 30.9 °F 30.04 in West 13.9 mph 23.0 mph 94 % 0.04 in 712.0 W/m2 RA
15:29 32.4 °F 30.9 °F 30.03 in West 9.6 mph 19.6 mph 94 % 0.04 in 719.0 W/m2 RA
15:34 32.4 °F 30.9 °F 30.03 in WNW 14.2 mph 20.7 mph 94 % 0.03 in 701.0 W/m2 CLR
15:39 32.4 °F 30.9 °F 30.03 in West 10.6 mph 19.6 mph 94 % 0.03 in 661.0 W/m2 CLR
15:44 32.4 °F 30.9 °F 30.04 in NW 8.5 mph 13.8 mph 94 % 0.03 in 638.0 W/m2 RA
15:49 32.6 °F 31.1 °F 30.04 in WSW 8.6 mph 17.3 mph 94 % 0.03 in 615.0 W/m2 RA
15:54 32.6 °F 31.1 °F 30.04 in WNW 7.9 mph 16.1 mph 94 % 0.04 in 612.0 W/m2 RA
15:59 32.6 °F 31.1 °F 30.04 in West 11.0 mph 19.6 mph 94 % 0.04 in 612.0 W/m2 RA
16:04 32.6 °F 31.1 °F 30.03 in WNW 10.8 mph 16.1 mph 94 % 0.03 in 596.0 W/m2 CLR
16:09 32.6 °F 31.1 °F 30.03 in West 8.4 mph 17.3 mph 94 % 0.03 in 631.0 W/m2 CLR
16:14 32.8 °F 31.3 °F 30.03 in WSW 11.6 mph 20.0 mph 94 % 0.04 in 568.0 W/m2 RA
16:19 32.8 °F 31.3 °F 30.03 in West 12.1 mph 20.7 mph 94 % 0.04 in 538.0 W/m2 RA
16:24 32.8 °F 31.3 °F 30.04 in WNW 11.4 mph 19.6 mph 94 % 0.03 in 533.0 W/m2 CLR
16:29 32.8 °F 31.3 °F 30.04 in WNW 13.3 mph 24.2 mph 94 % 0.03 in 508.0 W/m2 CLR
16:34 32.8 °F 31.3 °F 30.04 in WNW 10.4 mph 15.0 mph 94 % 0.04 in 503.0 W/m2 RA
16:39 32.8 °F 31.3 °F 30.04 in WNW 10.1 mph 16.1 mph 94 % 0.03 in 482.0 W/m2 RA
16:44 32.9 °F 31.4 °F 30.04 in West 15.3 mph 24.2 mph 94 % 0.03 in 454.0 W/m2 CLR
16:49 32.9 °F 31.4 °F 30.04 in WSW 17.6 mph 24.2 mph 94 % 0.03 in 436.0 W/m2 CLR
16:54 32.8 °F 31.3 °F 30.04 in West 7.6 mph 16.0 mph 94 % 0.03 in 420.0 W/m2 RA
16:59 32.9 °F 31.4 °F 30.04 in WNW 8.4 mph 13.8 mph 94 % 0.03 in 383.0 W/m2 RA
17:04 32.9 °F 31.4 °F 30.04 in WNW 12.7 mph 19.6 mph 94 % 0.03 in 388.0 W/m2 CLR
17:09 33.0 °F 31.5 °F 30.04 in West 8.5 mph 13.0 mph 94 % 0.03 in 374.0 W/m2 CLR
17:14 33.0 °F 31.5 °F 30.04 in West 10.6 mph 16.0 mph 94 % 0.02 in 345.0 W/m2 CLR
17:19 33.0 °F 31.5 °F 30.04 in WNW 13.7 mph 19.6 mph 94 % 0.03 in 322.0 W/m2 RA
17:24 32.9 °F 31.4 °F 30.04 in NW 7.6 mph 18.0 mph 94 % 0.03 in 320.0 W/m2 RA
17:29 32.9 °F 31.4 °F 30.04 in West 9.8 mph 16.1 mph 94 % 0.03 in 290.0 W/m2 CLR
17:34 32.9 °F 31.4 °F 30.04 in West 8.2 mph 15.0 mph 94 % 0.02 in 260.0 W/m2 CLR
17:39 32.9 °F 31.4 °F 30.04 in West 14.8 mph 19.6 mph 94 % 0.02 in 236.0 W/m2 CLR
17:44 32.9 °F 31.4 °F 30.05 in WNW 8.9 mph 18.4 mph 94 % 0.02 in 216.0 W/m2 CLR
17:49 33.0 °F 31.5 °F 30.05 in West 16.5 mph 23.0 mph 94 % 0.02 in 192.0 W/m2 CLR
17:54 33.0 °F 31.5 °F 30.05 in West 14.7 mph 19.6 mph 94 % 0.02 in 171.0 W/m2 RA
17:59 32.9 °F 31.4 °F 30.05 in West 9.5 mph 11.5 mph 94 % 0.02 in 148.0 W/m2 RA
18:04 33.0 °F 31.5 °F 30.05 in WNW 11.5 mph 22.0 mph 94 % 0.02 in 100.0 W/m2 CLR
18:09 32.8 °F 31.3 °F 30.05 in WNW 10.6 mph 15.0 mph 94 % 0.02 in 109.0 W/m2 CLR
18:14 32.8 °F 31.3 °F 30.06 in WSW 6.8 mph 13.8 mph 94 % 0.02 in 90.0 W/m2 FEW
18:19 32.8 °F 31.3 °F 30.06 in West 12.5 mph 18.4 mph 94 % 0.01 in 74.0 W/m2 FEW
18:24 32.7 °F 31.2 °F 30.06 in WNW 8.0 mph 13.8 mph 94 % 0.01 in 58.0 W/m2 SCT
18:29 32.7 °F 31.2 °F 30.06 in West 10.3 mph 16.1 mph 94 % 0.01 in 44.0 W/m2 SCT
18:34 32.6 °F 31.1 °F 30.07 in West 6.1 mph 11.5 mph 94 % 0.01 in 30.0 W/m2 BKN
18:39 32.6 °F 31.3 °F 30.07 in West 9.0 mph 13.8 mph 95 % 0.01 in 25.0 W/m2 BKN
18:44 32.5 °F 31.2 °F 30.07 in West 3.1 mph 10.4 mph 95 % 0.01 in 21.0 W/m2 BKN
18:49 32.5 °F 31.2 °F 30.07 in WSW 4.6 mph 10.4 mph 95 % 0.01 in 18.0 W/m2 SCT
18:54 32.4 °F 31.1 °F 30.07 in West 10.3 mph 16.1 mph 95 % 0.00 in 14.0 W/m2 SCT
19:00 32.3 °F 31.0 °F 30.07 in West 8.1 mph 10.0 mph 95 % 0.00 in 12.0 W/m2 SCT
19:05 32.2 °F 30.9 °F 30.08 in West 3.2 mph 16.1 mph 95 % 0.00 in 9.0 W/m2 CLR
19:10 32.2 °F 30.9 °F 30.08 in WSW 9.8 mph 13.8 mph 95 % 0.00 in 5.0 W/m2 CLR
19:15 32.1 °F 30.8 °F 30.08 in West 4.3 mph 9.2 mph 95 % 0.00 in 0.0 W/m2 CLR
19:20 32.0 °F 30.7 °F 30.08 in West 5.0 mph 8.1 mph 95 % 0.00 in 0.0 W/m2 CLR
19:25 31.9 °F 30.6 °F 30.08 in West 4.9 mph 9.2 mph 95 % 0.00 in 0.0 W/m2 CLR
19:30 31.8 °F 30.5 °F 30.09 in West 8.2 mph 11.5 mph 95 % 0.00 in 0.0 W/m2 CLR
19:35 31.7 °F 30.4 °F 30.09 in West 5.2 mph 15.0 mph 95 % 0.00 in 0.0 W/m2 CLR
19:40 31.7 °F 30.4 °F 30.09 in West 7.2 mph 7.2 mph 95 % 0.00 in 0.0 W/m2 CLR
19:45 31.6 °F 30.6 °F 30.09 in West 6.2 mph 11.5 mph 96 % 0.00 in 0.0 W/m2 CLR
19:50 31.5 °F 30.5 °F 30.09 in WSW 3.0 mph 14.0 mph 96 % 0.00 in 0.0 W/m2 CLR
19:55 31.4 °F 30.4 °F 30.10 in West 9.0 mph 16.0 mph 96 % 0.00 in 0.0 W/m2 CLR
20:00 31.3 °F 30.3 °F 30.10 in West 7.6 mph 9.0 mph 96 % 0.00 in 0.0 W/m2 CLR
20:05 31.3 °F 30.3 °F 30.10 in West 6.0 mph 12.0 mph 96 % 0.00 in 0.0 W/m2 CLR
20:10 31.2 °F 30.2 °F 30.11 in West 8.4 mph 18.4 mph 96 % 0.00 in 0.0 W/m2 CLR
20:15 31.1 °F 30.1 °F 30.11 in WSW 8.8 mph 12.7 mph 96 % 0.00 in 0.0 W/m2 CLR
20:20 31.0 °F 30.0 °F 30.11 in WSW 4.3 mph 15.0 mph 96 % 0.00 in 0.0 W/m2 CLR
20:25 31.0 °F 30.0 °F 30.11 in WSW 7.1 mph 10.4 mph 96 % 0.00 in 0.0 W/m2 CLR
20:30 30.8 °F 29.8 °F 30.12 in WSW 5.4 mph 9.2 mph 96 % 0.00 in 0.0 W/m2 CLR
20:35 30.8 °F 29.8 °F 30.12 in WSW 3.1 mph 10.0 mph 96 % 0.00 in 0.0 W/m2 CLR
20:40 30.6 °F 29.6 °F 30.12 in West 7.4 mph 12.0 mph 96 % 0.00 in 0.0 W/m2 CLR
20:45 30.6 °F 29.6 °F 30.12 in West 5.6 mph 8.1 mph 96 % 0.00 in 0.0 W/m2 CLR
20:50 30.4 °F 29.4 °F 30.13 in WSW 5.8 mph 8.1 mph 96 % 0.00 in 0.0 W/m2 CLR
20:55 30.4 °F 29.4 °F 30.13 in West 4.0 mph 6.9 mph 96 % 0.00 in 0.0 W/m2 CLR
21:00 30.3 °F 29.3 °F 30.13 in WSW 6.8 mph 9.2 mph 96 % 0.00 in 0.0 W/m2 CLR
21:05 30.1 °F 28.8 °F 30.13 in West 7.8 mph 11.5 mph 95 % 0.00 in 0.0 W/m2 CLR
21:10 30.1 °F 28.8 °F 30.14 in West 2.6 mph 11.5 mph 95 % 0.00 in 0.0 W/m2 CLR
21:15 30.0 °F 28.7 °F 30.14 in WSW 3.0 mph 6.0 mph 95 % 0.00 in 0.0 W/m2 CLR
21:20 29.9 °F 28.6 °F 30.14 in WSW 5.9 mph 10.4 mph 95 % 0.00 in 0.0 W/m2 CLR
21:25 29.8 °F 28.5 °F 30.15 in West 5.7 mph 7.0 mph 95 % 0.00 in 0.0 W/m2 CLR
21:30 29.7 °F 28.4 °F 30.15 in West 2.3 mph 10.4 mph 95 % 0.00 in 0.0 W/m2 CLR
21:35 29.7 °F 28.4 °F 30.15 in West 8.6 mph 15.0 mph 95 % 0.00 in 0.0 W/m2 CLR
21:40 29.7 °F 28.4 °F 30.15 in West 3.2 mph 9.2 mph 95 % 0.00 in 0.0 W/m2 CLR
21:46 29.7 °F 28.2 °F 30.15 in West 7.7 mph 12.7 mph 94 % 0.00 in 0.0 W/m2 CLR
21:51 29.7 °F 28.2 °F 30.16 in West 4.0 mph 10.4 mph 94 % 0.00 in 0.0 W/m2 CLR
21:56 29.7 °F 28.2 °F 30.16 in West 5.4 mph 6.9 mph 94 % 0.00 in 0.0 W/m2 CLR
22:01 29.7 °F 28.2 °F 30.16 in West 7.3 mph 17.3 mph 94 % 0.00 in 0.0 W/m2 CLR
22:06 29.6 °F 28.1 °F 30.16 in West 3.8 mph 8.0 mph 94 % 0.00 in 0.0 W/m2 CLR
22:11 29.7 °F 28.2 °F 30.17 in WNW 7.6 mph 13.0 mph 94 % 0.00 in 0.0 W/m2 CLR
22:16 29.7 °F 28.2 °F 30.17 in West 7.0 mph 15.0 mph 94 % 0.00 in 0.0 W/m2 CLR
22:21 29.6 °F 28.1 °F 30.17 in WNW 4.3 mph 11.5 mph 94 % 0.00 in 0.0 W/m2 CLR
22:26 29.6 °F 28.1 °F 30.17 in WSW 6.5 mph 17.3 mph 94 % 0.00 in 0.0 W/m2 CLR
22:31 29.5 °F 28.0 °F 30.17 in West 8.4 mph 13.8 mph 94 % 0.00 in 0.0 W/m2 CLR
22:36 29.5 °F 28.0 °F 30.17 in WSW 4.3 mph 10.4 mph 94 % 0.00 in 0.0 W/m2 CLR
22:41 29.5 °F 28.0 °F 30.17 in West 6.6 mph 9.2 mph 94 % 0.00 in 0.0 W/m2 CLR
22:42 29.5 °F 28.0 °F 30.17 in WSW 5.6 mph 10.4 mph 94 % 0.00 in 0.0 W/m2 CLR
22:47 29.4 °F 27.9 °F 30.17 in WNW 6.4 mph 10.4 mph 94 % 0.00 in 0.0 W/m2 CLR
22:52 29.4 °F 27.9 °F 30.17 in WNW 7.1 mph 12.7 mph 94 % 0.00 in 0.0 W/m2 CLR
22:57 29.4 °F 27.9 °F 30.18 in West 3.5 mph 10.4 mph 94 % 0.00 in 0.0 W/m2 CLR
23:02 29.3 °F 27.8 °F 30.18 in West 3.8 mph 6.9 mph 94 % 0.00 in 0.0 W/m2 CLR
23:07 29.2 °F 27.7 °F 30.18 in NW 6.5 mph 6.5 mph 94 % 0.00 in 0.0 W/m2 CLR
23:12 29.2 °F 27.7 °F 30.18 in West 3.7 mph 6.0 mph 94 % 0.00 in 0.0 W/m2 CLR
23:17 29.2 °F 27.7 °F 30.18 in WNW 3.0 mph 6.9 mph 94 % 0.00 in 0.0 W/m2 CLR
23:22 29.1 °F 27.6 °F 30.19 in WNW 3.0 mph 8.1 mph 94 % 0.00 in 0.0 W/m2 CLR
23:27 29.0 °F 27.5 °F 30.19 in WNW 5.3 mph 10.4 mph 94 % 0.00 in 0.0 W/m2 CLR
23:32 28.9 °F 27.4 °F 30.19 in West 5.2 mph 7.0 mph 94 % 0.00 in 0.0 W/m2 CLR
23:33 28.9 °F 27.4 °F 30.19 in WNW 4.5 mph 8.1 mph 94 % 0.00 in 0.0 W/m2 CLR
23:38 28.8 °F 27.3 °F 30.19 in WNW 4.8 mph 6.9 mph 94 % 0.00 in 0.0 W/m2 CLR
23:43 28.8 °F 27.3 °F 30.19 in WNW 2.5 mph 7.0 mph 94 % 0.00 in 0.0 W/m2 CLR
23:48 28.7 °F 27.2 °F 30.19 in West 7.1 mph 8.1 mph 94 % 0.00 in 0.0 W/m2 CLR
23:53 28.7 °F 27.2 °F 30.19 in WNW 4.2 mph 8.1 mph 94 % 0.00 in 0.0 W/m2 CLR
23:58 28.6 °F 27.1 °F 30.20 in WNW 3.7 mph 8.1 mph 94 % 0.00 in 0.0 W/m2 CLR
Air Products Campus Weather
Compliments of Weather Underground - 3.5 mb